TimeMDT,TemperatureF,Dew PointF,Humidity,Sea Level PressureIn,VisibilityMPH,Wind Direction,Wind SpeedMPH,Gust SpeedMPH,PrecipitationIn,Events,Conditions,WindDirDegrees,DateUTC
12:15 AM,34.9,29.3,80,29.97,10.0,SSE,4.6,-,N/A,,Clear,160,2013-04-20 06:15:00
12:35 AM,35.2,28.6,77,29.97,10.0,South,3.5,-,N/A,,Clear,180,2013-04-20 06:35:00
12:55 AM,35.6,28.0,74,29.97,10.0,South,3.5,-,N/A,,Clear,170,2013-04-20 06:55:00
1:15 AM,36.5,28.0,71,29.96,10.0,SSE,5.8,-,N/A,,Scattered Clouds,160,2013-04-20 07:15:00
1:35 AM,36.7,28.6,72,29.95,10.0,SSE,5.8,-,N/A,,Mostly Cloudy,150,2013-04-20 07:35:00
1:55 AM,37.6,28.6,70,29.94,10.0,SE,5.8,-,N/A,,Mostly Cloudy,130,2013-04-20 07:55:00
2:15 AM,38.5,28.4,67,29.94,10.0,SE,4.6,-,N/A,,Mostly Cloudy,130,2013-04-20 08:15:00
2:35 AM,38.3,28.8,69,29.93,10.0,SSE,4.6,-,N/A,,Overcast,160,2013-04-20 08:35:00
2:55 AM,39.4,28.4,65,29.93,10.0,South,5.8,-,N/A,,Overcast,190,2013-04-20 08:55:00
3:15 AM,39.9,28.2,63,29.92,10.0,South,4.6,-,N/A,,Overcast,180,2013-04-20 09:15:00
3:35 AM,40.1,28.2,63,29.92,10.0,SSE,5.8,-,N/A,,Overcast,160,2013-04-20 09:35:00
3:55 AM,40.1,27.7,61,29.92,10.0,SSE,6.9,-,N/A,,Overcast,160,2013-04-20 09:55:00
4:15 AM,40.1,27.3,60,29.91,10.0,SE,9.2,-,N/A,,Overcast,140,2013-04-20 10:15:00
4:35 AM,39.2,27.3,62,29.91,10.0,SE,5.8,-,N/A,,Overcast,130,2013-04-20 10:35:00
4:55 AM,37.9,27.5,66,29.91,10.0,South,4.6,-,N/A,,Overcast,170,2013-04-20 10:55:00
5:15 AM,38.1,26.2,62,29.91,10.0,Calm,Calm,-,N/A,,Overcast,0,2013-04-20 11:15:00
5:35 AM,38.7,26.1,61,29.91,10.0,North,-9999.0,-,N/A,,Overcast,0,2013-04-20 11:35:00
5:55 AM,38.5,25.3,59,29.91,10.0,Calm,Calm,-,N/A,,Mostly Cloudy,0,2013-04-20 11:55:00
6:15 AM,37.9,25.7,61,29.91,10.0,WSW,4.6,-,N/A,,Scattered Clouds,250,2013-04-20 12:15:00
6:35 AM,36.7,23.9,60,29.91,10.0,SSW,4.6,-,N/A,,Scattered Clouds,200,2013-04-20 12:35:00
6:55 AM,36.0,24.3,63,29.92,10.0,Calm,Calm,-,N/A,,Overcast,0,2013-04-20 12:55:00
7:15 AM,37.8,23.2,56,29.92,10.0,Calm,Calm,-,N/A,,Overcast,0,2013-04-20 13:15:00
7:35 AM,37.8,27.5,67,29.92,10.0,South,4.6,-,N/A,,Overcast,180,2013-04-20 13:35:00
7:55 AM,39.0,25.7,59,29.93,10.0,SSW,5.8,-,N/A,,Overcast,200,2013-04-20 13:55:00
8:15 AM,40.1,25.7,56,29.93,10.0,Calm,Calm,-,N/A,,Overcast,0,2013-04-20 14:15:00
8:35 AM,41.5,25.3,53,29.93,10.0,Calm,Calm,-,N/A,,Overcast,0,2013-04-20 14:35:00
8:55 AM,42.8,25.3,50,29.94,10.0,Calm,Calm,-,N/A,,Overcast,0,2013-04-20 14:55:00
9:15 AM,43.7,26.1,50,29.93,10.0,South,3.5,-,N/A,,Mostly Cloudy,190,2013-04-20 15:15:00
9:35 AM,44.6,27.3,51,29.93,10.0,South,3.5,-,N/A,,Mostly Cloudy,190,2013-04-20 15:35:00
9:55 AM,46.9,28.2,48,29.94,10.0,Calm,Calm,-,N/A,,Mostly Cloudy,0,2013-04-20 15:55:00
10:15 AM,49.3,30.0,48,29.94,10.0,Calm,Calm,-,N/A,,Scattered Clouds,0,2013-04-20 16:15:00
10:35 AM,51.8,29.8,43,29.94,10.0,SSW,3.5,-,N/A,,Clear,210,2013-04-20 16:35:00
10:55 AM,53.4,27.7,37,29.94,10.0,Calm,Calm,-,N/A,,Mostly Cloudy,0,2013-04-20 16:55:00
11:15 AM,55.6,27.1,34,29.94,10.0,Calm,Calm,-,N/A,,Scattered Clouds,0,2013-04-20 17:15:00
11:35 AM,55.8,27.7,34,29.94,10.0,NNW,5.8,-,N/A,,Mostly Cloudy,340,2013-04-20 17:35:00
11:55 AM,55.9,26.4,32,29.93,10.0,Calm,Calm,-,N/A,,Mostly Cloudy,0,2013-04-20 17:55:00
12:15 PM,56.5,26.6,32,29.93,10.0,Calm,Calm,-,N/A,,Mostly Cloudy,0,2013-04-20 18:15:00
12:35 PM,57.9,27.3,31,29.93,10.0,WNW,9.2,-,N/A,,Mostly Cloudy,300,2013-04-20 18:35:00
12:55 PM,58.8,27.7,31,29.92,10.0,NW,8.1,-,N/A,,Scattered Clouds,310,2013-04-20 18:55:00
1:15 PM,58.5,27.7,31,29.92,10.0,NW,6.9,-,N/A,,Clear,320,2013-04-20 19:15:00
1:35 PM,59.4,28.0,30,29.92,10.0,WNW,6.9,18.4,N/A,,Clear,300,2013-04-20 19:35:00
1:55 PM,59.2,28.9,32,29.92,10.0,NNW,5.8,-,N/A,,Scattered Clouds,340,2013-04-20 19:55:00
2:15 PM,58.3,28.9,33,29.92,10.0,North,3.5,17.3,N/A,,Clear,350,2013-04-20 20:15:00
2:35 PM,59.7,29.1,31,29.92,10.0,NNW,8.1,16.1,N/A,,Clear,330,2013-04-20 20:35:00
2:55 PM,60.4,30.7,33,29.92,10.0,WNW,9.2,-,N/A,,Clear,300,2013-04-20 20:55:00
3:15 PM,59.4,30.0,33,29.91,10.0,NW,9.2,-,N/A,,Clear,320,2013-04-20 21:15:00
3:35 PM,59.7,30.2,33,29.91,10.0,NW,9.2,-,N/A,,Mostly Cloudy,310,2013-04-20 21:35:00
3:55 PM,58.6,31.3,36,29.91,10.0,NNW,8.1,-,N/A,,Mostly Cloudy,330,2013-04-20 21:55:00
4:15 PM,57.9,30.2,35,29.91,10.0,NNW,8.1,-,N/A,,Mostly Cloudy,340,2013-04-20 22:15:00
4:35 PM,58.3,30.6,35,29.91,10.0,NW,9.2,-,N/A,,Mostly Cloudy,320,2013-04-20 22:35:00
4:55 PM,59.0,31.3,35,29.91,10.0,North,11.5,17.3,N/A,,Mostly Cloudy,350,2013-04-20 22:55:00
5:15 PM,57.0,30.4,36,29.91,10.0,NNW,9.2,-,N/A,,Mostly Cloudy,340,2013-04-20 23:15:00
5:35 PM,58.3,29.8,34,29.91,10.0,NNW,8.1,-,N/A,,Mostly Cloudy,330,2013-04-20 23:35:00
5:55 PM,55.4,32.0,41,29.92,10.0,North,9.2,-,N/A,,Scattered Clouds,350,2013-04-20 23:55:00
6:15 PM,56.7,33.1,41,29.92,10.0,North,9.2,-,N/A,,Scattered Clouds,350,2013-04-21 00:15:00
6:35 PM,55.4,34.0,44,29.92,10.0,North,9.2,-,N/A,,Scattered Clouds,350,2013-04-21 00:35:00
6:55 PM,55.2,32.7,43,29.93,10.0,North,6.9,-,N/A,,Scattered Clouds,350,2013-04-21 00:55:00
7:15 PM,53.1,34.0,48,29.94,10.0,North,6.9,-,N/A,,Scattered Clouds,350,2013-04-21 01:15:00
7:35 PM,49.8,35.1,57,29.95,10.0,North,9.2,-,N/A,,Mostly Cloudy,360,2013-04-21 01:35:00
7:55 PM,48.7,37.4,65,29.96,10.0,North,8.1,-,N/A,,Mostly Cloudy,360,2013-04-21 01:55:00
8:15 PM,48.6,37.9,67,29.96,10.0,North,8.1,-,N/A,,Overcast,360,2013-04-21 02:15:00
8:55 PM,48.4,37.4,66,29.98,10.0,NNW,12.7,19.6,N/A,,Overcast,330,2013-04-21 02:55:00
9:15 PM,52.0,32.0,47,29.98,10.0,Calm,Calm,-,N/A,,Overcast,0,2013-04-21 03:15:00
9:35 PM,48.2,35.1,60,29.98,10.0,Calm,Calm,-,N/A,,Overcast,0,2013-04-21 03:35:00
9:55 PM,48.6,35.1,60,29.99,10.0,Calm,Calm,-,N/A,,Overcast,0,2013-04-21 03:55:00
10:15 PM,47.1,37.8,70,30.00,7.0,NNW,9.2,-,N/A,,Overcast,330,2013-04-21 04:15:00
10:35 PM,46.8,38.5,73,30.01,10.0,NNW,15.0,19.6,N/A,,Overcast,330,2013-04-21 04:35:00
10:55 PM,44.6,40.3,85,30.03,7.0,NW,3.5,-,N/A,,Overcast,310,2013-04-21 04:55:00
11:15 PM,43.5,39.6,86,30.03,10.0,Calm,Calm,-,N/A,,Mostly Cloudy,0,2013-04-21 05:15:00
11:35 PM,43.7,40.3,88,30.03,10.0,NNE,6.9,-,N/A,,Overcast,20,2013-04-21 05:35:00
11:55 PM,42.8,39.7,89,30.03,10.0,NE,4.6,-,N/A,,Overcast,40,2013-04-21 05:55:00